Time;durP1;ratioP1;P1;durP2;ratioP2;P2;SDS_P1;SDS_P2;PMS_P1;PMS_P2;Temp;Humidity;BMP_temperature;BMP_pressure;BME280_temperature;BME280_humidity;BME280_pressure;Samples;Min_cycle;Max_cycle;Signal;HPM_P1;HPM_P2
2023/01/16 00:01:13;;;;;;;8.30;4.40;;;4.40;99.90;;;;;;4937947;28;20046;-74
2023/01/16 00:03:39;;;;;;;7.82;4.68;;;4.30;99.90;;;;;;4983746;28;20111;-74
2023/01/16 00:06:07;;;;;;;5.45;3.67;;;4.20;99.90;;;;;;4984932;28;20132;-74
2023/01/16 00:08:33;;;;;;;8.20;4.40;;;4.20;99.90;;;;;;4976942;28;20429;-74
2023/01/16 00:10:59;;;;;;;10.02;4.22;;;4.10;99.90;;;;;;4953195;28;20046;-74
2023/01/16 00:13:25;;;;;;;9.07;4.50;;;4.10;99.90;;;;;;4968374;28;20046;-74
2023/01/16 00:15:51;;;;;;;10.20;4.32;;;4.00;99.90;;;;;;4968947;28;20116;-73
2023/01/16 00:18:18;;;;;;;6.80;4.15;;;4.00;99.90;;;;;;4968813;28;20050;-74
2023/01/16 00:20:45;;;;;;;9.57;4.47;;;4.00;99.90;;;;;;4966879;28;20505;-74
2023/01/16 00:23:11;;;;;;;7.35;3.63;;;4.00;99.90;;;;;;4982709;28;20133;-75
2023/01/16 00:25:41;;;;;;;9.80;4.82;;;4.00;99.90;;;;;;4954478;28;20137;-74
2023/01/16 00:28:09;;;;;;;8.50;4.25;;;3.90;99.90;;;;;;4968587;28;20105;-74
2023/01/16 00:30:36;;;;;;;11.02;4.40;;;3.90;99.90;;;;;;4982601;28;20505;-74
2023/01/16 00:33:02;;;;;;;10.93;3.90;;;3.90;99.90;;;;;;4985694;28;20075;-75
2023/01/16 00:35:28;;;;;;;8.32;4.47;;;3.90;99.90;;;;;;4967801;28;20054;-75
2023/01/16 00:37:54;;;;;;;10.07;4.72;;;3.90;99.90;;;;;;4953193;28;20447;-74
2023/01/16 00:40:20;;;;;;;8.60;3.92;;;3.90;99.90;;;;;;4984994;28;20096;-74
2023/01/16 00:42:45;;;;;;;8.38;4.50;;;3.90;99.90;;;;;;4970598;28;20053;-74
2023/01/16 00:45:11;;;;;;;9.07;4.63;;;3.90;99.90;;;;;;4951947;28;20042;-71
2023/01/16 00:47:38;;;;;;;8.55;3.80;;;3.90;99.90;;;;;;4984594;28;20046;-71
2023/01/16 00:50:07;;;;;;;8.15;4.32;;;3.90;99.90;;;;;;4969091;28;20038;-71
2023/01/16 00:52:33;;;;;;;8.18;4.75;;;3.90;99.90;;;;;;4983896;28;20050;-71
2023/01/16 00:55:02;;;;;;;8.63;4.10;;;4.00;99.90;;;;;;4949631;28;20610;-74
2023/01/16 00:57:28;;;;;;;9.30;4.13;;;4.00;99.90;;;;;;4967086;28;20045;-74
2023/01/16 00:59:53;;;;;;;8.77;4.25;;;4.10;99.90;;;;;;4969085;28;20559;-74
2023/01/16 01:02:19;;;;;;;7.53;3.90;;;4.10;99.90;;;;;;4967405;28;20517;-74
2023/01/16 01:04:45;;;;;;;9.45;3.88;;;4.20;99.90;;;;;;4963173;28;20046;-74
2023/01/16 01:07:11;;;;;;;8.60;4.25;;;4.20;99.90;;;;;;4951932;28;20041;-74
2023/01/16 01:09:36;;;;;;;8.70;4.25;;;4.10;99.90;;;;;;4962017;28;20125;-74
2023/01/16 01:12:02;;;;;;;7.63;3.75;;;4.20;99.90;;;;;;4985448;28;20039;-71
2023/01/16 01:14:28;;;;;;;7.50;4.25;;;4.20;99.90;;;;;;4946812;28;20057;-71
2023/01/16 01:16:54;;;;;;;10.95;4.03;;;4.20;99.90;;;;;;4969223;28;20039;-71
2023/01/16 01:19:20;;;;;;;10.85;4.35;;;4.20;99.90;;;;;;4988027;28;20793;-71
2023/01/16 01:21:46;;;;;;;9.20;4.70;;;4.20;99.90;;;;;;4969923;28;20035;-71
2023/01/16 01:24:11;;;;;;;8.88;4.03;;;4.20;99.90;;;;;;4971434;28;20057;-71
2023/01/16 01:26:38;;;;;;;10.95;4.43;;;4.20;99.90;;;;;;4952976;28;21016;-71
2023/01/16 01:29:04;;;;;;;9.20;4.00;;;4.10;99.90;;;;;;4971077;28;20053;-71
2023/01/16 01:31:30;;;;;;;8.93;3.63;;;4.10;99.90;;;;;;4986472;28;20059;-71
2023/01/16 01:33:56;;;;;;;11.48;4.13;;;4.10;99.90;;;;;;4967005;28;20030;-71
2023/01/16 01:36:21;;;;;;;10.60;4.00;;;4.10;99.90;;;;;;4988397;28;20096;-73
2023/01/16 01:38:49;;;;;;;9.15;3.78;;;4.10;99.90;;;;;;4969129;28;20038;-71
2023/01/16 01:41:16;;;;;;;9.90;4.13;;;4.00;99.90;;;;;;4982260;28;20057;-71
2023/01/16 01:43:50;;;;;;;8.73;3.80;;;4.00;99.90;;;;;;4983895;28;20053;-71
2023/01/16 01:46:34;;;;;;;8.07;3.85;;;4.00;99.90;;;;;;4980351;28;20116;-71
2023/01/16 01:49:26;;;;;;;9.55;3.92;;;4.00;99.90;;;;;;4987887;28;20117;-71
2023/01/16 01:51:58;;;;;;;10.23;3.70;;;4.00;99.90;;;;;;4983552;28;20065;-71
2023/01/16 01:54:31;;;;;;;10.25;3.53;;;4.00;99.90;;;;;;4981540;28;20041;-71
2023/01/16 01:57:11;;;;;;;10.52;3.40;;;4.10;99.90;;;;;;4991190;28;20072;-71
2023/01/16 01:59:41;;;;;;;9.10;3.58;;;4.00;99.90;;;;;;4991227;28;20061;-71
2023/01/16 02:02:12;;;;;;;10.00;3.80;;;4.00;99.90;;;;;;4974691;28;20065;-71
2023/01/16 02:04:43;;;;;;;6.32;3.33;;;4.00;99.90;;;;;;4989266;28;20068;-71
2023/01/16 02:07:13;;;;;;;10.25;3.22;;;4.00;99.90;;;;;;4974962;28;20510;-71
2023/01/16 02:09:39;;;;;;;;;;;4.00;99.90;;;;;;4990424;28;20579;-75
2023/01/16 02:12:10;;;;;;;12.02;4.20;;;4.00;99.90;;;;;;4991392;28;19999;-75
2023/01/16 02:14:41;;;;;;;9.48;3.65;;;3.90;99.90;;;;;;4974742;28;20041;-74
2023/01/16 02:20:10;;;;;;;8.13;3.92;;;3.90;99.90;;;;;;4988490;28;20401;-73
2023/01/16 02:22:44;;;;;;;8.35;3.38;;;3.90;99.90;;;;;;5003715;28;20058;-73
2023/01/16 02:25:19;;;;;;;9.13;3.58;;;3.90;99.90;;;;;;4973907;28;20641;-74
2023/01/16 02:28:19;;;;;;;8.05;3.83;;;3.90;99.90;;;;;;4977573;28;20060;-70
2023/01/16 02:31:13;;;;;;;8.95;3.00;;;3.90;99.90;;;;;;4979409;28;20057;-70
2023/01/16 02:33:57;;;;;;;7.22;3.00;;;3.80;99.90;;;;;;4971506;28;20136;-70
2023/01/16 02:36:54;;;;;;;9.52;3.75;;;3.80;99.90;;;;;;4988700;28;20079;-71
2023/01/16 02:39:22;;;;;;;10.15;3.75;;;3.80;99.90;;;;;;4990375;28;20041;-74
2023/01/16 02:42:03;;;;;;;8.35;3.30;;;3.80;99.90;;;;;;4989559;28;20081;-74
2023/01/16 02:44:32;;;;;;;8.63;3.78;;;3.80;99.90;;;;;;4972813;28;20057;-74
2023/01/16 02:47:17;;;;;;;8.43;3.60;;;3.70;99.90;;;;;;4965441;28;20045;-73
2023/01/16 02:50:09;;;;;;;11.77;4.50;;;3.70;99.90;;;;;;4964265;28;20046;-74
2023/01/16 02:53:11;;;;;;;11.02;4.40;;;3.60;99.90;;;;;;4979300;28;20057;-74
2023/01/16 02:56:03;;;;;;;9.50;4.40;;;3.70;99.90;;;;;;4953862;28;20543;-75
2023/01/16 02:58:32;;;;;;;8.98;4.47;;;3.70;99.90;;;;;;4970466;28;20046;-74
2023/01/16 03:00:59;;;;;;;11.52;5.28;;;3.80;99.90;;;;;;4966892;28;20041;-73
2023/01/16 03:03:44;;;;;;;10.10;4.93;;;3.80;99.90;;;;;;4978913;28;20419;-73
2023/01/16 03:06:19;;;;;;;10.63;5.15;;;3.80;99.90;;;;;;4988471;28;20404;-73
2023/01/16 03:09:10;;;;;;;10.43;4.90;;;3.90;99.90;;;;;;4999572;28;20041;-75
2023/01/16 03:11:53;;;;;;;11.02;5.18;;;3.90;99.90;;;;;;4969649;28;20048;-75
2023/01/16 03:14:34;;;;;;;9.50;5.70;;;3.90;99.90;;;;;;4991000;28;20105;-76
2023/01/16 03:17:24;;;;;;;10.02;6.00;;;4.00;99.90;;;;;;4972481;28;20050;-75
2023/01/16 03:20:04;;;;;;;10.77;6.55;;;4.00;99.90;;;;;;4970613;28;20108;-76
2023/01/16 03:23:12;;;;;;;9.48;6.03;;;4.00;99.90;;;;;;4966941;28;20072;-75
2023/01/16 03:25:45;;;;;;;10.35;6.40;;;4.00;99.90;;;;;;4936255;28;20062;-76
2023/01/16 03:28:23;;;;;;;9.48;6.85;;;4.10;99.90;;;;;;4973003;28;20623;-76
2023/01/16 03:31:12;;;;;;;11.90;7.03;;;4.20;99.90;;;;;;4986172;28;20180;-76
2023/01/16 03:34:17;;;;;;;10.48;6.55;;;4.20;99.90;;;;;;4981634;28;20088;-75
2023/01/16 03:36:47;;;;;;;11.95;7.40;;;4.30;99.90;;;;;;4983075;28;20046;-74
2023/01/16 03:39:15;;;;;;;13.65;7.80;;;4.30;99.90;;;;;;4988577;28;20041;-74
2023/01/16 03:41:45;;;;;;;12.27;7.25;;;4.40;99.90;;;;;;4970300;28;20064;-74
2023/01/16 03:44:25;;;;;;;12.32;7.50;;;4.40;99.90;;;;;;4987475;28;20149;-74
2023/01/16 03:46:51;;;;;;;10.77;6.75;;;4.40;99.90;;;;;;4983082;28;20487;-73
2023/01/16 03:49:27;;;;;;;9.88;7.82;;;4.40;99.90;;;;;;4970069;28;20042;-74
2023/01/16 03:51:58;;;;;;;12.30;7.68;;;4.50;99.90;;;;;;4967030;28;20079;-73
2023/01/16 03:55:05;;;;;;;11.35;7.38;;;4.50;99.90;;;;;;4995677;28;20129;-74
2023/01/16 03:57:37;;;;;;;11.13;7.68;;;4.50;99.90;;;;;;4974699;28;20049;-73
2023/01/16 04:00:08;;;;;;;12.10;8.35;;;4.50;99.90;;;;;;4985194;28;20049;-74
2023/01/16 04:02:43;;;;;;;;;;;4.50;99.90;;;;;;4986718;28;20054;-74
2023/01/16 04:05:28;;;;;;;12.88;8.07;;;4.50;99.90;;;;;;4988216;28;20321;-73
2023/01/16 04:07:59;;;;;;;15.07;9.18;;;4.50;99.90;;;;;;4971469;28;20046;-74
2023/01/16 04:10:38;;;;;;;11.00;8.35;;;4.50;99.90;;;;;;4985803;28;20054;-74
2023/01/16 04:13:14;;;;;;;12.00;8.98;;;4.60;99.90;;;;;;4970447;28;20124;-73
2023/01/16 04:15:48;;;;;;;12.77;9.20;;;4.50;99.90;;;;;;4984217;28;20092;-74
2023/01/16 04:18:14;;;;;;;10.10;9.00;;;4.60;99.90;;;;;;4986738;28;20053;-73
2023/01/16 04:20:43;;;;;;;13.70;9.73;;;4.60;99.90;;;;;;4954109;28;20073;-74
2023/01/16 04:23:09;;;;;;;13.05;10.50;;;4.60;99.90;;;;;;4979256;28;20037;-74
2023/01/16 04:25:35;;;;;;;12.32;10.35;;;4.70;99.90;;;;;;4986760;28;20060;-73
2023/01/16 04:28:01;;;;;;;14.75;11.85;;;4.60;99.90;;;;;;4967793;28;20054;-73
2023/01/16 04:30:26;;;;;;;15.85;12.13;;;4.60;99.90;;;;;;4986805;28;20049;-70
2023/01/16 04:32:53;;;;;;;15.38;12.13;;;4.60;99.90;;;;;;4969334;28;20196;-74
2023/01/16 04:35:19;;;;;;;15.82;13.48;;;4.60;99.90;;;;;;4954602;28;20044;-74
2023/01/16 04:37:45;;;;;;;17.58;14.35;;;4.60;99.90;;;;;;4950209;28;20062;-75
2023/01/16 04:40:11;;;;;;;17.33;14.63;;;4.60;99.90;;;;;;4970565;28;20112;-73
2023/01/16 04:42:39;;;;;;;19.45;15.75;;;4.60;99.90;;;;;;4983944;28;20050;-74
2023/01/16 04:45:05;;;;;;;18.95;15.88;;;4.60;99.90;;;;;;4970436;28;20050;-73
2023/01/16 04:47:31;;;;;;;19.13;17.25;;;4.60;99.90;;;;;;4970147;28;20108;-74
2023/01/16 04:49:57;;;;;;;20.50;18.25;;;4.70;99.90;;;;;;4984906;28;20045;-73
2023/01/16 04:52:23;;;;;;;25.05;17.15;;;4.60;99.90;;;;;;4954467;28;20045;-73
2023/01/16 04:54:48;;;;;;;20.00;17.88;;;4.60;99.90;;;;;;4968373;28;20042;-74
2023/01/16 04:57:14;;;;;;;22.45;18.33;;;4.70;99.90;;;;;;4969700;28;20042;-74
2023/01/16 04:59:40;;;;;;;22.17;17.42;;;4.60;99.90;;;;;;4972393;28;20050;-73
2023/01/16 05:02:05;;;;;;;20.08;17.88;;;4.60;99.90;;;;;;4953040;28;20091;-74
2023/01/16 05:04:31;;;;;;;21.23;18.95;;;4.60;99.90;;;;;;4947750;28;20049;-73
2023/01/16 05:06:57;;;;;;;20.35;18.25;;;4.50;99.90;;;;;;4954075;28;20143;-73
2023/01/16 05:09:23;;;;;;;22.85;20.42;;;4.50;99.90;;;;;;4975709;28;20041;-70
2023/01/16 05:11:48;;;;;;;21.30;19.13;;;4.40;99.90;;;;;;4985558;28;20810;-74
2023/01/16 05:14:14;;;;;;;20.88;18.73;;;4.40;99.90;;;;;;4968035;28;20045;-74
2023/01/16 05:16:41;;;;;;;20.85;18.70;;;4.30;99.90;;;;;;4950101;28;20054;-73
2023/01/16 05:19:08;;;;;;;24.20;20.35;;;4.30;99.90;;;;;;4984525;28;20062;-75
2023/01/16 05:21:34;;;;;;;22.77;18.73;;;4.20;99.90;;;;;;4956099;28;20080;-75
2023/01/16 05:24:00;;;;;;;25.13;20.33;;;4.20;99.90;;;;;;4973812;28;20044;-75
2023/01/16 05:26:26;;;;;;;22.50;19.90;;;4.10;99.90;;;;;;4973180;28;20037;-75
2023/01/16 05:28:52;;;;;;;21.95;19.75;;;4.10;99.90;;;;;;4993092;28;20128;-76
2023/01/16 05:31:18;;;;;;;22.02;19.65;;;4.10;99.90;;;;;;4994657;28;20037;-72
2023/01/16 05:33:43;;;;;;;24.85;20.20;;;4.00;99.90;;;;;;4977465;28;20050;-71
2023/01/16 05:36:09;;;;;;;21.77;19.45;;;4.00;99.90;;;;;;4976912;28;20413;-75
2023/01/16 05:38:35;;;;;;;22.52;19.05;;;3.90;99.90;;;;;;4977951;28;20096;-75
2023/01/16 05:41:01;;;;;;;26.08;19.65;;;3.90;99.90;;;;;;4979546;28;20038;-75
2023/01/16 05:43:26;;;;;;;26.13;19.17;;;3.80;99.90;;;;;;4960383;28;20057;-75
2023/01/16 05:45:52;;;;;;;22.63;19.42;;;3.80;99.90;;;;;;4961243;28;20034;-75
2023/01/16 05:48:18;;;;;;;22.10;18.75;;;3.80;99.90;;;;;;4973187;28;20045;-73
2023/01/16 05:50:44;;;;;;;23.58;20.40;;;3.80;99.90;;;;;;4962103;28;20120;-74
2023/01/16 05:53:10;;;;;;;22.20;19.70;;;3.70;99.90;;;;;;4973488;28;20128;-74
2023/01/16 05:55:46;;;;;;;21.75;17.88;;;3.60;99.90;;;;;;4953550;28;20424;-73
2023/01/16 05:58:13;;;;;;;21.00;17.88;;;3.70;99.90;;;;;;4973514;28;20467;-75
2023/01/16 06:00:40;;;;;;;20.45;18.27;;;3.70;99.90;;;;;;4959772;28;20034;-75
2023/01/16 06:03:07;;;;;;;21.08;17.27;;;3.70;99.90;;;;;;4956342;28;20038;-72
2023/01/16 06:05:33;;;;;;;24.15;17.33;;;3.70;99.90;;;;;;4974550;28;20054;-72
2023/01/16 06:07:59;;;;;;;24.35;17.70;;;3.90;99.90;;;;;;4998976;28;20508;-72
2023/01/16 06:10:29;;;;;;;19.23;15.30;;;3.80;99.90;;;;;;4993071;28;20052;-71
2023/01/16 06:12:55;;;;;;;19.00;15.35;;;3.80;99.90;;;;;;4993604;28;20081;-75
2023/01/16 06:15:21;;;;;;;20.15;15.85;;;3.70;99.90;;;;;;4993166;28;20108;-74
2023/01/16 06:17:46;;;;;;;20.50;15.43;;;3.70;99.90;;;;;;4955138;28;20228;-75
2023/01/16 06:20:12;;;;;;;19.65;15.52;;;3.70;99.90;;;;;;4955096;28;20057;-75
2023/01/16 06:22:38;;;;;;;18.73;15.43;;;3.70;99.90;;;;;;4967295;28;20049;-75
2023/01/16 06:25:04;;;;;;;19.23;14.07;;;3.80;99.90;;;;;;4987442;28;20061;-75
2023/01/16 06:27:32;;;;;;;16.77;13.45;;;3.60;99.90;;;;;;4989397;28;20104;-75
2023/01/16 06:29:58;;;;;;;17.02;13.25;;;3.70;99.90;;;;;;4972691;28;20053;-74
2023/01/16 06:32:24;;;;;;;18.80;13.55;;;3.60;99.90;;;;;;4989424;28;20042;-76
2023/01/16 06:34:49;;;;;;;14.80;12.80;;;3.60;99.90;;;;;;4959902;28;20638;-74
2023/01/16 06:37:15;;;;;;;16.23;13.23;;;3.60;99.90;;;;;;4968674;28;20038;-74
2023/01/16 06:39:41;;;;;;;15.52;11.95;;;3.60;99.90;;;;;;4949786;28;20043;-74
2023/01/16 06:42:07;;;;;;;15.85;11.70;;;3.70;99.90;;;;;;4985385;28;20050;-74
2023/01/16 06:44:33;;;;;;;16.25;12.07;;;3.60;99.90;;;;;;4952580;28;20046;-74
2023/01/16 06:47:00;;;;;;;16.13;12.35;;;3.50;99.90;;;;;;4983464;28;20066;-74
2023/01/16 06:49:27;;;;;;;17.70;12.60;;;3.50;99.90;;;;;;4965825;28;20070;-74
2023/01/16 06:51:52;;;;;;;19.08;12.45;;;3.60;99.90;;;;;;4982198;28;20080;-74
2023/01/16 06:54:18;;;;;;;15.60;12.00;;;3.60;99.90;;;;;;4975675;28;20062;-74
2023/01/16 06:56:44;;;;;;;18.85;12.35;;;3.60;99.90;;;;;;4950456;28;20049;-74
2023/01/16 06:59:11;;;;;;;19.35;13.15;;;3.60;99.90;;;;;;4967101;28;20226;-74
2023/01/16 07:01:36;;;;;;;14.75;12.18;;;3.60;99.90;;;;;;4964942;28;20058;-74
2023/01/16 07:04:03;;;;;;;16.58;10.88;;;3.60;99.90;;;;;;4966541;28;20053;-75
2023/01/16 07:06:29;;;;;;;18.15;11.50;;;3.60;99.90;;;;;;4968670;28;20054;-74
2023/01/16 07:08:56;;;;;;;18.73;12.27;;;3.60;99.90;;;;;;4969999;28;20053;-73
2023/01/16 07:11:23;;;;;;;14.77;10.77;;;3.60;99.90;;;;;;4951355;28;20146;-74
2023/01/16 07:22:33;;;;;;;18.02;10.55;;;3.50;99.90;;;;;;4983442;28;20233;-74
2023/01/16 07:24:52;;;;;;;14.73;10.30;;;3.50;99.90;;;;;;4971275;28;20512;-74
2023/01/16 07:27:18;;;;;;;13.13;9.10;;;3.50;99.90;;;;;;4951110;28;20038;-74
2023/01/16 07:29:44;;;;;;;15.88;10.55;;;3.50;99.90;;;;;;4968961;28;20053;-74
2023/01/16 07:32:10;;;;;;;17.05;10.52;;;3.50;99.90;;;;;;4967127;28;20052;-73
2023/01/16 07:34:36;;;;;;;15.57;10.57;;;3.50;99.90;;;;;;4967268;28;20092;-74
2023/01/16 07:37:02;;;;;;;16.27;9.80;;;3.50;99.90;;;;;;4951626;28;20117;-74
2023/01/16 07:39:27;;;;;;;17.65;9.45;;;3.50;99.90;;;;;;4967188;28;20054;-75
2023/01/16 07:41:53;;;;;;;13.02;9.40;;;3.50;99.90;;;;;;4951779;28;20042;-74
2023/01/16 07:44:19;;;;;;;12.35;9.50;;;3.60;99.90;;;;;;4983879;28;20121;-74
2023/01/16 07:46:44;;;;;;;16.27;9.95;;;3.60;99.90;;;;;;4967004;28;20435;-75
2023/01/16 07:49:10;;;;;;;14.48;10.13;;;3.60;99.90;;;;;;4965455;28;20121;-72
2023/01/16 07:51:36;;;;;;;16.00;10.23;;;3.60;99.90;;;;;;4949293;28;20057;-74
2023/01/16 07:54:02;;;;;;;15.85;11.45;;;3.60;99.90;;;;;;4985928;28;20035;-74
2023/01/16 07:56:28;;;;;;;16.83;11.02;;;3.60;99.90;;;;;;4965913;28;20586;-74
2023/01/16 07:58:54;;;;;;;16.42;10.27;;;3.60;99.90;;;;;;4966658;28;20042;-74
2023/01/16 08:01:20;;;;;;;14.70;10.70;;;3.70;99.90;;;;;;4982697;28;20081;-74
2023/01/16 08:03:46;;;;;;;19.20;11.00;;;3.70;99.90;;;;;;4983213;28;20034;-73
2023/01/16 08:06:11;;;;;;;15.98;10.50;;;3.70;99.90;;;;;;4968815;28;20043;-74
2023/01/16 08:08:37;;;;;;;15.43;10.15;;;3.70;99.90;;;;;;4967013;28;20096;-74
2023/01/16 08:11:35;;;;;;;14.18;10.60;;;3.70;99.90;;;;;;4952189;28;20035;-74
2023/01/16 08:13:50;;;;;;;14.38;10.27;;;3.70;99.90;;;;;;4982473;28;20057;-74
2023/01/16 08:16:16;;;;;;;16.00;10.85;;;3.70;99.90;;;;;;4966582;28;20501;-74
2023/01/16 08:18:43;;;;;;;16.15;10.75;;;3.80;99.90;;;;;;4951576;28;20054;-74
2023/01/16 08:21:09;;;;;;;15.38;10.32;;;3.80;99.90;;;;;;4964209;28;20505;-74
2023/01/16 08:23:35;;;;;;;15.27;10.13;;;3.80;99.90;;;;;;4967669;28;20120;-71
2023/01/16 08:26:01;;;;;;;15.48;10.50;;;3.80;99.90;;;;;;4965251;28;20089;-72
2023/01/16 08:28:27;;;;;;;15.48;10.43;;;3.70;99.90;;;;;;4964814;28;20456;-72
2023/01/16 08:30:53;;;;;;;14.85;10.30;;;3.80;99.90;;;;;;4982619;28;20049;-74
2023/01/16 08:33:19;;;;;;;15.45;9.73;;;3.80;99.90;;;;;;4983192;28;20037;-74
2023/01/16 08:35:44;;;;;;;15.55;9.27;;;3.90;99.90;;;;;;4967364;28;20089;-74
2023/01/16 08:38:10;;;;;;;12.85;9.20;;;3.90;99.90;;;;;;4948487;28;20096;-74
2023/01/16 08:40:36;;;;;;;13.02;8.70;;;4.00;99.90;;;;;;4983324;28;20057;-74
2023/01/16 08:51:23;;;;;;;13.48;8.45;;;4.00;99.90;;;;;;4982483;28;20088;-73
2023/01/16 08:53:49;;;;;;;11.23;8.30;;;4.00;99.90;;;;;;4982401;28;20096;-74
2023/01/16 08:56:15;;;;;;;12.05;7.85;;;4.00;99.90;;;;;;4950262;28;20046;-73
2023/01/16 08:58:41;;;;;;;11.95;7.40;;;4.00;99.90;;;;;;4966492;28;20142;-73
2023/01/16 09:01:07;;;;;;;11.02;7.78;;;4.00;99.90;;;;;;4951528;28;20042;-73
2023/01/16 09:03:34;;;;;;;11.82;7.93;;;4.10;99.90;;;;;;4979544;28;20104;-73
2023/01/16 09:06:03;;;;;;;10.55;7.47;;;4.10;99.90;;;;;;4952503;28;20125;-73
2023/01/16 09:08:29;;;;;;;9.60;7.32;;;4.00;99.90;;;;;;4949894;28;20537;-73
2023/01/16 09:13:51;;;;;;;11.02;7.38;;;4.10;99.90;;;;;;4983441;28;20413;-73
2023/01/16 09:16:22;;;;;;;10.35;6.90;;;4.10;99.90;;;;;;4951492;28;20070;-74
2023/01/16 09:18:49;;;;;;;10.55;7.32;;;4.10;99.90;;;;;;4982037;28;20173;-74
2023/01/16 09:21:15;;;;;;;9.50;7.60;;;4.10;99.90;;;;;;4948941;28;20374;-74
2023/01/16 09:23:41;;;;;;;10.35;6.63;;;4.10;99.90;;;;;;4950367;28;20053;-73
2023/01/16 09:26:07;;;;;;;11.07;6.57;;;4.10;99.90;;;;;;4983720;28;20424;-73
2023/01/16 09:28:35;;;;;;;10.27;7.13;;;4.10;99.90;;;;;;4967753;28;20085;-74
2023/01/16 09:31:01;;;;;;;11.38;6.97;;;4.10;99.90;;;;;;4980950;28;20046;-74
2023/01/16 09:33:27;;;;;;;9.27;6.30;;;4.10;99.90;;;;;;4982932;28;20038;-73
2023/01/16 09:35:53;;;;;;;10.05;6.65;;;4.10;99.90;;;;;;4981838;28;20038;-73
2023/01/16 09:38:20;;;;;;;10.13;6.72;;;4.20;99.90;;;;;;4966219;28;20046;-73
2023/01/16 09:40:54;;;;;;;7.60;5.80;;;4.20;99.90;;;;;;4969338;28;20042;-75
2023/01/16 09:43:39;;;;;;;9.48;5.40;;;4.10;99.90;;;;;;4966542;28;20050;-73
2023/01/16 09:46:19;;;;;;;9.20;5.45;;;4.20;99.90;;;;;;4967510;28;20042;-74
2023/01/16 09:48:58;;;;;;;7.87;4.90;;;4.20;99.90;;;;;;4978908;28;20520;-74
2023/01/16 09:51:28;;;;;;;9.07;4.70;;;4.20;99.90;;;;;;4965331;28;20484;-75
2023/01/16 09:59:38;;;;;;;7.55;4.60;;;4.20;99.90;;;;;;4980269;28;20096;-74
2023/01/16 10:02:07;;;;;;;8.43;4.50;;;4.30;99.90;;;;;;4983203;28;20049;-74
2023/01/16 10:04:33;;;;;;;7.80;3.90;;;4.30;99.90;;;;;;4964676;28;20059;-75
2023/01/16 10:07:17;;;;;;;8.32;4.22;;;4.30;99.90;;;;;;4967206;28;20065;-74
2023/01/16 10:10:01;;;;;;;8.20;3.67;;;4.30;99.90;;;;;;4983961;28;20053;-74
2023/01/16 10:12:32;;;;;;;6.45;3.22;;;4.30;99.90;;;;;;4970511;28;20053;-74
2023/01/16 10:15:04;;;;;;;7.57;3.53;;;4.30;99.90;;;;;;4969703;28;20089;-75
2023/01/16 10:17:30;;;;;;;6.93;3.50;;;4.20;99.90;;;;;;4968623;28;20125;-74
2023/01/16 10:20:32;;;;;;;5.57;2.42;;;4.30;99.90;;;;;;4969918;28;20058;-74
2023/01/16 10:23:05;;;;;;;7.38;2.75;;;4.30;99.90;;;;;;4984597;28;20042;-75
2023/01/16 10:25:46;;;;;;;5.95;2.30;;;4.30;99.90;;;;;;4987674;28;20058;-74
2023/01/16 10:28:38;;;;;;;6.80;3.00;;;4.30;99.90;;;;;;4967432;28;20104;-73
2023/01/16 10:31:35;;;;;;;5.75;2.80;;;4.30;99.90;;;;;;4969577;28;20050;-73
2023/01/16 10:34:25;;;;;;;5.30;2.72;;;4.30;99.90;;;;;;4981319;28;20145;-73
2023/01/16 10:36:57;;;;;;;6.00;3.25;;;4.30;99.90;;;;;;4985267;28;20054;-74
2023/01/16 10:39:36;;;;;;;6.03;3.40;;;4.30;99.90;;;;;;4966934;28;20352;-73
2023/01/16 10:50:39;;;;;;;4.93;2.40;;;4.10;99.90;;;;;;4985642;28;20141;-73
2023/01/16 10:53:06;;;;;;;4.45;2.92;;;4.10;99.90;;;;;;4983479;28;20081;-73
2023/01/16 10:55:37;;;;;;;3.08;2.50;;;4.00;99.90;;;;;;4986394;28;20042;-73
2023/01/16 10:58:25;;;;;;;4.93;3.10;;;4.00;99.90;;;;;;4982330;28;20101;-73
2023/01/16 11:00:56;;;;;;;5.10;3.28;;;4.00;99.90;;;;;;4966519;28;20489;-73
2023/01/16 11:03:36;;;;;;;4.50;3.22;;;4.00;99.90;;;;;;4968309;28;20182;-73
2023/01/16 11:06:13;;;;;;;7.13;3.70;;;4.00;99.90;;;;;;4984066;28;20034;-73
2023/01/16 11:08:41;;;;;;;4.47;3.25;;;3.90;99.90;;;;;;4979876;28;20054;-72
2023/01/16 11:19:30;;;;;;;6.53;3.97;;;4.00;99.90;;;;;;4975947;28;20079;-73
2023/01/16 11:22:06;;;;;;;5.65;3.70;;;4.00;99.90;;;;;;4986672;28;20563;-73
2023/01/16 11:24:38;;;;;;;7.22;4.53;;;3.90;99.90;;;;;;4987041;28;20058;-73
2023/01/16 11:27:18;;;;;;;7.00;4.45;;;4.00;99.90;;;;;;4968425;28;20497;-73
2023/01/16 11:29:44;;;;;;;5.70;3.83;;;4.00;99.90;;;;;;4986340;28;20048;-73
2023/01/16 11:32:14;;;;;;;5.55;3.60;;;4.00;99.90;;;;;;4966917;28;20038;-73
2023/01/16 11:34:45;;;;;;;6.90;4.05;;;4.00;99.90;;;;;;4984623;28;20046;-73
2023/01/16 11:37:14;;;;;;;5.10;4.00;;;4.00;99.90;;;;;;4969178;28;20050;-73
2023/01/16 11:39:41;;;;;;;5.80;3.65;;;4.00;99.90;;;;;;4984192;28;20058;-73
2023/01/16 11:47:44;;;;;;;6.43;3.67;;;4.10;99.90;;;;;;4963765;28;20046;-73
2023/01/16 11:50:28;;;;;;;5.22;3.22;;;4.10;99.90;;;;;;4987983;28;20042;-73
2023/01/16 11:52:54;;;;;;;4.07;3.35;;;4.10;99.90;;;;;;4975211;28;20137;-74
2023/01/16 11:55:25;;;;;;;6.25;3.35;;;4.00;99.90;;;;;;4968716;28;20124;-73
2023/01/16 11:58:02;;;;;;;5.47;3.53;;;4.10;99.90;;;;;;4972370;28;20042;-72
2023/01/16 12:00:39;;;;;;;5.32;3.67;;;4.10;99.90;;;;;;4983781;28;20120;-75
2023/01/16 12:03:17;;;;;;;6.63;3.67;;;4.10;99.90;;;;;;4986273;28;20509;-75
2023/01/16 12:06:06;;;;;;;5.38;3.55;;;4.10;99.90;;;;;;4971209;28;20104;-75
2023/01/16 12:08:44;;;;;;;5.57;3.53;;;4.10;99.90;;;;;;5004258;28;20133;-74
2023/01/16 12:11:28;;;;;;;5.07;3.63;;;4.10;99.90;;;;;;4987667;28;20475;-75
2023/01/16 12:14:18;;;;;;;6.32;4.40;;;4.10;99.90;;;;;;4982786;28;20223;-75
2023/01/16 12:16:55;;;;;;;6.22;4.00;;;4.20;99.90;;;;;;4970632;28;20045;-73
2023/01/16 12:19:49;;;;;;;5.70;3.45;;;4.10;99.90;;;;;;4951793;28;20057;-75
2023/01/16 12:22:40;;;;;;;6.63;4.10;;;4.20;99.90;;;;;;4960294;28;20121;-75
2023/01/16 12:25:43;;;;;;;7.50;4.40;;;4.20;99.90;;;;;;4959088;28;20078;-73
2023/01/16 12:28:28;;;;;;;8.18;4.35;;;4.20;99.90;;;;;;4955840;28;20058;-73
2023/01/16 12:31:17;;;;;;;10.27;5.43;;;4.30;99.90;;;;;;4937161;28;20051;-75
2023/01/16 12:34:09;;;;;;;4.95;4.25;;;4.30;99.90;;;;;;4940089;28;20086;-74
2023/01/16 12:36:58;;;;;;;7.93;5.07;;;4.30;99.90;;;;;;4965281;28;20059;-73
2023/01/16 12:39:33;;;;;;;5.90;4.40;;;4.40;99.90;;;;;;4937118;28;20435;-73
2023/01/16 12:44:58;;;;;;;6.53;4.53;;;4.40;99.90;;;;;;4959392;28;20126;-73
2023/01/16 12:47:44;;;;;;;6.95;4.88;;;4.40;99.90;;;;;;4941532;28;20129;-73
2023/01/16 12:50:38;;;;;;;7.60;4.82;;;4.40;99.90;;;;;;4953483;28;20039;-74
2023/01/16 12:53:21;;;;;;;6.15;4.60;;;4.40;99.90;;;;;;4945335;28;20580;-73
2023/01/16 12:55:59;;;;;;;7.55;5.07;;;4.40;99.90;;;;;;4961968;28;20364;-73
2023/01/16 12:58:33;;;;;;;8.90;4.93;;;4.30;99.90;;;;;;4942024;28;20047;-74
2023/01/16 13:01:22;;;;;;;6.57;4.97;;;4.40;99.90;;;;;;4934919;28;20317;-72
2023/01/16 13:04:15;;;;;;;9.15;5.30;;;4.50;99.90;;;;;;4953089;28;20049;-73
2023/01/16 13:06:58;;;;;;;7.65;4.95;;;4.50;99.90;;;;;;4945060;28;20051;-73
2023/01/16 13:09:37;;;;;;;7.88;5.70;;;4.50;99.90;;;;;;4944560;28;20054;-73
2023/01/16 13:15:12;;;;;;;7.25;5.20;;;4.50;99.90;;;;;;4954597;28;20083;-73
2023/01/16 13:17:49;;;;;;;6.55;5.57;;;4.50;99.90;;;;;;4948084;28;20068;-73
2023/01/16 13:20:18;;;;;;;6.57;5.25;;;4.50;99.90;;;;;;4980955;28;20054;-75
2023/01/16 13:22:55;;;;;;;6.45;5.40;;;4.50;99.90;;;;;;4982535;28;20142;-75
2023/01/16 13:25:43;;;;;;;6.10;5.50;;;4.50;99.90;;;;;;4982334;28;20086;-74
2023/01/16 13:28:45;;;;;;;6.53;5.78;;;4.60;99.90;;;;;;4969599;28;20482;-73
2023/01/16 13:31:38;;;;;;;6.82;5.60;;;4.60;99.90;;;;;;4965312;28;20409;-72
2023/01/16 13:34:07;;;;;;;7.13;5.75;;;4.60;99.90;;;;;;4981870;28;20090;-73
2023/01/16 13:37:02;;;;;;;7.25;5.68;;;4.60;99.90;;;;;;4981870;28;20487;-73
2023/01/16 13:39:46;;;;;;;7.47;5.22;;;4.60;99.90;;;;;;4980991;28;20477;-76
2023/01/16 13:42:15;;;;;;;6.47;4.93;;;4.60;99.90;;;;;;4982785;28;20137;-75
2023/01/16 13:47:35;;;;;;;5.57;5.07;;;4.70;99.90;;;;;;4984925;28;20054;-76
2023/01/16 13:50:16;;;;;;;5.63;4.80;;;4.70;99.90;;;;;;4987294;28;20042;-74
2023/01/16 13:52:43;;;;;;;10.02;5.18;;;4.70;99.90;;;;;;4984676;28;20042;-74
2023/01/16 13:55:29;;;;;;;5.88;4.50;;;4.70;99.90;;;;;;4954778;28;20046;-73
2023/01/16 13:58:07;;;;;;;5.97;4.90;;;4.70;99.90;;;;;;4962366;28;20698;-73
2023/01/16 14:00:36;;;;;;;5.82;4.43;;;4.70;99.90;;;;;;4980382;28;20404;-73
2023/01/16 14:03:18;;;;;;;5.07;3.80;;;4.70;99.90;;;;;;4986745;28;20069;-74
2023/01/16 14:05:48;;;;;;;6.60;4.28;;;4.70;99.90;;;;;;4984228;28;20144;-74
2023/01/16 14:11:33;;;;;;;6.10;4.60;;;4.70;99.90;;;;;;4979248;28;20056;-72
2023/01/16 14:16:30;;;;;;;6.18;4.97;;;4.70;99.90;;;;;;4981487;28;20072;-72
2023/01/16 14:17:05;;;;;;;6.85;4.00;;;4.70;99.90;;;;;;4986085;28;20323;-71